Terminal Aerodrome Forecast
Issued by NWS North Platte, NE

Home | Current Version | Previous Version | Text Only | Print | Product List | Glossary Off
Versions: 1 2 3 4 5 6 7 8 9 10 11 12 13

003
FTUS43 KLBF 231736
TAFVTN
TAF
KVTN 231736Z 2318/2418 33019G27KT P6SM SCT050
     FM240200 33013G19KT P6SM FEW250
     FM240300 33006KT P6SM FEW250
     FM240700 28007KT P6SM FEW250
     FM241600 31013G19KT P6SM FEW250=

USA.gov is the U.S. government's official web portal to all federal, state and local government web resources and services.